createdAt,value
2017-11-10T00:00:29.161Z,21.10
2017-11-10T00:03:04.286Z,22.13
2017-11-10T00:05:39.527Z,22.40
2017-11-10T00:08:14.280Z,22.10
2017-11-10T00:10:49.311Z,21.00
2017-11-10T00:13:24.137Z,21.80
2017-11-10T00:15:59.969Z,21.60
2017-11-10T00:18:34.815Z,20.37
2017-11-10T00:21:09.872Z,16.47
2017-11-10T00:23:44.957Z,20.97
2017-11-10T00:26:20.458Z,19.57
2017-11-10T00:28:55.536Z,21.33
2017-11-10T00:31:30.352Z,23.83
2017-11-10T00:34:05.236Z,22.00
2017-11-10T00:36:40.121Z,18.87
2017-11-10T00:39:15.068Z,20.90
2017-11-10T00:41:49.788Z,21.80
2017-11-10T00:44:24.910Z,23.00
2017-11-10T00:46:59.256Z,18.20
2017-11-10T00:49:34.537Z,19.90
2017-11-10T00:52:10.448Z,21.03
2017-11-10T00:54:45.219Z,19.83
2017-11-10T00:57:20.248Z,18.30
2017-11-10T00:59:55.593Z,19.50
2017-11-10T01:02:30.451Z,16.37
2017-11-10T01:05:05.588Z,19.20
2017-11-10T01:07:40.416Z,20.17
2017-11-10T01:10:15.208Z,16.87
2017-11-10T01:12:50.313Z,17.53
2017-11-10T01:15:25.308Z,16.57
2017-11-10T01:18:00.990Z,17.37
2017-11-10T01:20:36.427Z,14.43
2017-11-10T01:23:11.778Z,18.63
2017-11-10T01:25:46.880Z,14.60
2017-11-10T01:28:21.756Z,17.43
2017-11-10T01:30:56.313Z,19.10
2017-11-10T01:33:31.676Z,18.03
2017-11-10T01:36:07.312Z,17.43
2017-11-10T01:38:41.931Z,18.60
2017-11-10T01:41:17.133Z,18.37
2017-11-10T01:43:52.974Z,19.70
2017-11-10T01:46:27.877Z,18.30
2017-11-10T01:49:02.888Z,18.30
2017-11-10T01:51:38.181Z,20.47
2017-11-10T01:54:12.932Z,19.13
2017-11-10T01:56:47.507Z,18.10
2017-11-10T01:59:21.669Z,17.83
2017-11-10T02:01:56.942Z,17.63
2017-11-10T02:04:32.222Z,18.67
2017-11-10T02:07:07.106Z,19.43
2017-11-10T02:09:42.096Z,15.83
2017-11-10T02:12:16.625Z,22.00
2017-11-10T02:14:51.043Z,18.60
2017-11-10T02:17:26.148Z,20.37
2017-11-10T02:20:01.488Z,21.00
2017-11-10T02:22:35.896Z,20.23
2017-11-10T02:25:10.926Z,20.60
2017-11-10T02:27:45.861Z,19.83
2017-11-10T02:30:20.893Z,18.57
2017-11-10T02:32:55.324Z,21.30
2017-11-10T02:35:30.092Z,21.00
2017-11-10T02:38:04.970Z,21.37
2017-11-10T02:40:39.941Z,20.10
2017-11-10T02:43:14.264Z,20.13
2017-11-10T02:45:49.637Z,21.80
2017-11-10T02:48:24.363Z,21.60
2017-11-10T02:50:58.838Z,21.70
2017-11-10T02:53:33.949Z,22.77
2017-11-10T02:56:08.524Z,21.77
2017-11-10T02:58:43.772Z,22.10
2017-11-10T03:01:18.101Z,21.13
2017-11-10T03:03:53.330Z,21.60
2017-11-10T03:06:27.753Z,20.83
2017-11-10T03:09:02.513Z,22.53
2017-11-10T03:11:37.693Z,22.70
2017-11-10T03:14:12.221Z,22.17
2017-11-10T03:16:47.436Z,23.50
2017-11-10T03:19:22.096Z,21.10
2017-11-10T03:21:57.600Z,23.90
2017-11-10T03:24:32.180Z,19.67
2017-11-10T03:27:07.404Z,22.33
2017-11-10T03:29:42.336Z,23.73
2017-11-10T03:32:17.708Z,23.90
2017-11-10T03:34:52.449Z,24.20
2017-11-10T03:37:27.424Z,22.40
2017-11-10T03:40:02.653Z,22.30
2017-11-10T03:42:37.229Z,24.53
2017-11-10T03:45:12.028Z,22.60
2017-11-10T03:47:47.025Z,22.90
2017-11-10T03:50:21.644Z,22.87
2017-11-10T03:52:57.801Z,21.60
2017-11-10T03:55:33.158Z,21.67
2017-11-10T03:58:08.237Z,21.10
2017-11-10T04:00:42.853Z,22.70
2017-11-10T04:03:17.713Z,20.20
2017-11-10T04:05:53.008Z,22.60
2017-11-10T04:08:28.160Z,23.00
2017-11-10T04:11:02.397Z,17.23
2017-11-10T04:13:37.317Z,20.33
2017-11-10T04:16:12.052Z,20.57
2017-11-10T04:18:47.241Z,19.63
2017-11-10T04:21:21.842Z,22.27
2017-11-10T04:23:56.254Z,21.90
2017-11-10T04:26:31.109Z,24.97
2017-11-10T04:29:05.738Z,23.00
2017-11-10T04:31:40.468Z,25.43
2017-11-10T04:34:15.794Z,27.27
2017-11-10T04:36:50.461Z,24.07
2017-11-10T04:39:25.773Z,26.27
2017-11-10T04:42:01.104Z,27.90
2017-11-10T04:44:35.905Z,27.50
2017-11-10T04:47:10.893Z,33.70
2017-11-10T04:49:46.281Z,34.67
2017-11-10T04:52:20.692Z,30.50
2017-11-10T04:54:55.401Z,30.27
2017-11-10T04:57:30.651Z,29.53
2017-11-10T05:00:05.764Z,33.47
2017-11-10T05:02:40.454Z,33.60
2017-11-10T05:05:15.769Z,30.70
2017-11-10T05:07:50.739Z,33.17
2017-11-10T05:10:27.020Z,31.47
2017-11-10T05:13:02.090Z,31.87
2017-11-10T05:15:37.136Z,32.33
2017-11-10T05:18:12.704Z,27.80
2017-11-10T05:20:47.428Z,28.83
2017-11-10T05:23:22.609Z,33.60
2017-11-10T05:25:57.312Z,34.73
2017-11-10T05:28:32.536Z,30.40
2017-11-10T05:31:06.810Z,29.30
2017-11-10T05:33:41.088Z,30.97
2017-11-10T05:36:15.235Z,28.37
2017-11-10T05:38:50.468Z,31.37
2017-11-10T05:41:25.091Z,28.27
2017-11-10T05:43:59.915Z,28.43
2017-11-10T05:46:34.988Z,29.50
2017-11-10T05:49:09.688Z,27.70
2017-11-10T05:51:44.228Z,30.17
2017-11-10T05:54:20.150Z,21.30
2017-11-10T05:56:55.156Z,25.47
2017-11-10T05:59:30.257Z,25.40
2017-11-10T06:02:04.102Z,23.33
2017-11-10T06:04:38.711Z,23.00
2017-11-10T06:07:13.609Z,25.13
2017-11-10T06:09:48.850Z,25.10
2017-11-10T06:12:23.656Z,23.30
2017-11-10T06:14:58.901Z,23.20
2017-11-10T06:17:33.948Z,21.40
2017-11-10T06:20:09.140Z,24.20
2017-11-10T06:22:43.711Z,29.70
2017-11-10T06:25:18.689Z,26.50
2017-11-10T06:27:53.185Z,25.83
2017-11-10T06:30:28.044Z,21.47
2017-11-10T06:33:02.907Z,26.40
2017-11-10T06:35:37.608Z,28.03
2017-11-10T06:38:12.544Z,25.63
2017-11-10T06:40:47.526Z,24.67
2017-11-10T06:43:22.191Z,26.53
2017-11-10T06:45:57.154Z,25.27
2017-11-10T06:48:32.406Z,24.07
2017-11-10T06:51:07.340Z,23.97
2017-11-10T06:53:42.037Z,24.57
2017-11-10T06:56:16.641Z,22.50
2017-11-10T06:58:51.725Z,21.63
2017-11-10T07:01:26.709Z,24.70
2017-11-10T07:04:01.648Z,24.17
2017-11-10T07:06:36.173Z,23.47
2017-11-10T07:09:11.661Z,25.27
2017-11-10T07:11:46.859Z,22.80
2017-11-10T07:14:21.988Z,23.77
2017-11-10T07:16:56.965Z,21.97
2017-11-10T07:19:31.737Z,24.40
2017-11-10T07:22:06.461Z,23.37
2017-11-10T07:24:41.452Z,21.47
2017-11-10T07:27:16.295Z,25.37
2017-11-10T07:29:51.317Z,21.70
2017-11-10T07:32:26.177Z,26.73
2017-11-10T07:35:01.865Z,24.37
2017-11-10T07:37:36.713Z,28.43
2017-11-10T07:40:12.326Z,26.47
2017-11-10T07:42:47.200Z,25.40
2017-11-10T07:45:22.129Z,25.00
2017-11-10T07:47:57.965Z,26.60
2017-11-10T07:50:33.632Z,25.97
2017-11-10T07:53:08.609Z,19.27
2017-11-10T07:55:43.498Z,29.00
2017-11-10T07:58:18.196Z,29.03
2017-11-10T08:00:53.546Z,30.40
2017-11-10T08:03:28.952Z,28.50
2017-11-10T08:06:03.722Z,33.10
2017-11-10T08:08:38.549Z,30.37
2017-11-10T08:11:13.500Z,30.07
2017-11-10T08:13:48.128Z,33.50
2017-11-10T08:16:22.962Z,28.97
2017-11-10T08:18:57.544Z,29.90
2017-11-10T08:21:32.574Z,33.50
2017-11-10T08:24:07.357Z,31.50
2017-11-10T08:26:42.399Z,27.73
2017-11-10T08:29:16.934Z,29.93
2017-11-10T08:31:51.423Z,28.97
2017-11-10T08:34:26.695Z,29.80
2017-11-10T08:37:01.392Z,33.53
2017-11-10T08:39:36.237Z,39.47
2017-11-10T08:42:11.913Z,34.70
2017-11-10T08:44:46.750Z,36.70
2017-11-10T08:47:21.661Z,33.33
2017-11-10T08:49:56.579Z,39.17
2017-11-10T08:52:30.974Z,39.10
2017-11-10T08:55:06.079Z,44.40
2017-11-10T08:57:40.761Z,41.50
2017-11-10T09:00:15.614Z,41.33
2017-11-10T09:02:50.320Z,40.80
2017-11-10T09:05:26.029Z,39.90
2017-11-10T09:08:00.657Z,37.40
2017-11-10T09:10:35.587Z,42.83
2017-11-10T09:13:10.231Z,26.97
2017-11-10T09:15:44.840Z,29.63
2017-11-10T09:18:19.408Z,28.50
2017-11-10T09:20:54.258Z,26.30
2017-11-10T09:23:29.222Z,24.70
2017-11-10T09:26:03.665Z,24.20
2017-11-10T09:28:44.406Z,22.50
2017-11-10T09:44:59.560Z,22.40
2017-11-10T09:47:39.597Z,20.67
2017-11-10T09:50:20.182Z,16.00
2017-11-10T09:52:58.509Z,21.90
2017-11-10T09:55:41.221Z,21.03
2017-11-10T09:58:29.269Z,18.47
2017-11-10T10:01:07.246Z,21.63
2017-11-10T10:03:42.837Z,17.57
2017-11-10T10:06:22.368Z,20.83
2017-11-10T10:08:58.432Z,22.07
2017-11-10T10:11:38.881Z,19.33
2017-11-10T10:14:13.965Z,18.53
2017-11-10T10:16:54.290Z,21.10
2017-11-10T10:19:29.773Z,21.77
2017-11-10T10:22:05.041Z,20.60
2017-11-10T10:24:39.381Z,18.47
2017-11-10T10:27:14.317Z,20.60
2017-11-10T10:29:49.316Z,21.73
2017-11-10T10:32:24.569Z,21.20
2017-11-10T10:34:59.558Z,18.53
2017-11-10T10:37:34.415Z,18.07
2017-11-10T10:40:08.781Z,20.03
2017-11-10T10:42:43.316Z,21.07
2017-11-10T10:45:18.362Z,20.80
2017-11-10T10:47:53.386Z,20.40
2017-11-10T10:50:28.101Z,24.50
2017-11-10T10:53:03.300Z,22.60
2017-11-10T10:55:38.245Z,15.43
2017-11-10T10:58:13.924Z,17.73
2017-11-10T11:00:48.933Z,18.97
2017-11-10T11:03:23.821Z,19.40
2017-11-10T11:05:59.369Z,18.80
2017-11-10T11:08:33.957Z,18.97
2017-11-10T11:11:08.793Z,18.07
2017-11-10T11:13:44.022Z,18.87
2017-11-10T11:16:18.961Z,16.90
2017-11-10T11:18:53.982Z,17.90
2017-11-10T11:21:28.669Z,19.00
2017-11-10T11:24:03.361Z,18.57
2017-11-10T11:26:38.617Z,16.70
2017-11-10T11:29:13.924Z,19.33
2017-11-10T11:31:49.086Z,19.93
2017-11-10T11:34:23.519Z,17.90
2017-11-10T11:36:58.553Z,19.10
2017-11-10T11:39:33.637Z,19.00
2017-11-10T11:42:07.947Z,15.80
2017-11-10T11:44:43.010Z,21.13
2017-11-10T11:47:17.845Z,19.50
2017-11-10T11:49:52.565Z,18.83
2017-11-10T11:52:27.353Z,15.00
2017-11-10T11:55:02.369Z,19.43
2017-11-10T11:57:37.166Z,19.40
2017-11-10T12:00:11.678Z,18.50
2017-11-10T12:02:47.161Z,17.43
2017-11-10T12:05:21.869Z,17.77
2017-11-10T12:07:56.988Z,13.07
2017-11-10T12:10:31.756Z,18.30
2017-11-10T12:13:06.740Z,18.30
2017-11-10T12:15:41.503Z,16.93
2017-11-10T12:18:16.327Z,15.80
2017-11-10T12:20:50.642Z,17.60
2017-11-10T12:23:25.347Z,15.57
2017-11-10T12:25:59.837Z,14.60
2017-11-10T12:28:34.625Z,10.87
2017-11-10T12:31:09.247Z,11.37
2017-11-10T12:33:44.374Z,14.10
2017-11-10T12:36:19.122Z,13.10
2017-11-10T12:38:54.089Z,11.90
2017-11-10T12:41:28.949Z,12.43
2017-11-10T12:44:03.265Z,11.20
2017-11-10T12:46:38.357Z,11.23
2017-11-10T12:49:13.090Z,8.27
2017-11-10T12:51:47.711Z,10.30
2017-11-10T12:54:22.962Z,11.13
2017-11-10T12:56:57.938Z,9.70
2017-11-10T12:59:33.761Z,10.50
2017-11-10T13:02:08.257Z,9.63
2017-11-10T13:04:43.285Z,10.20
2017-11-10T13:07:18.569Z,8.93
2017-11-10T13:09:54.138Z,7.87
2017-11-10T13:12:29.319Z,8.30
2017-11-10T13:15:04.341Z,10.20
2017-11-10T13:17:39.434Z,8.87
2017-11-10T13:20:14.724Z,8.97
2017-11-10T13:22:49.820Z,8.97
2017-11-10T13:25:25.009Z,8.40
2017-11-10T13:27:59.840Z,9.60
2017-11-10T13:30:34.642Z,8.10
2017-11-10T13:33:09.386Z,8.53
2017-11-10T13:35:44.172Z,8.43
2017-11-10T13:38:18.846Z,9.50
2017-11-10T13:40:53.652Z,9.07
2017-11-10T13:43:28.644Z,7.43
2017-11-10T13:46:03.496Z,8.87
2017-11-10T13:48:39.412Z,6.87
2017-11-10T13:51:14.329Z,8.10
2017-11-10T13:53:48.981Z,8.20
2017-11-10T13:56:23.833Z,7.03
2017-11-10T13:58:58.614Z,6.40
2017-11-10T14:01:34.508Z,3.80
2017-11-10T14:04:09.092Z,1.80
2017-11-10T14:06:44.242Z,2.83
2017-11-10T14:09:18.980Z,1.83
2017-11-10T14:11:53.585Z,2.93
2017-11-10T14:14:28.824Z,2.40
2017-11-10T14:17:03.857Z,2.53
2017-11-10T14:19:38.996Z,1.80
2017-11-10T14:22:14.162Z,1.37
2017-11-10T14:24:48.631Z,0.70
2017-11-10T14:27:23.252Z,1.97
2017-11-10T14:29:57.878Z,1.87
2017-11-10T14:32:32.658Z,1.60
2017-11-10T14:35:07.461Z,1.33
2017-11-10T14:37:42.320Z,1.80
2017-11-10T14:40:17.152Z,1.37
2017-11-10T14:42:52.003Z,1.70
2017-11-10T14:45:26.844Z,3.00
2017-11-10T14:48:01.733Z,1.60
2017-11-10T14:50:36.350Z,1.70
2017-11-10T14:53:11.245Z,1.10
2017-11-10T14:55:45.924Z,1.37
2017-11-10T14:58:20.672Z,1.30
2017-11-10T15:00:55.381Z,1.60
2017-11-10T15:03:30.083Z,1.40
2017-11-10T15:06:04.746Z,1.20
2017-11-10T15:08:39.352Z,1.77
2017-11-10T15:11:13.814Z,2.33
2017-11-10T15:13:48.841Z,1.93
2017-11-10T15:16:23.528Z,2.93
2017-11-10T15:18:58.628Z,2.50
2017-11-10T15:21:33.465Z,1.70
2017-11-10T15:24:08.152Z,2.30
2017-11-10T15:26:42.977Z,1.80
2017-11-10T15:29:18.141Z,1.80
2017-11-10T15:31:53.148Z,2.20
2017-11-10T15:34:27.721Z,2.30
2017-11-10T15:37:02.707Z,2.13
2017-11-10T15:39:37.928Z,2.00
2017-11-10T15:42:13.228Z,2.97
2017-11-10T15:44:47.332Z,4.67
2017-11-10T15:47:22.157Z,3.87
2017-11-10T15:49:56.557Z,6.97
2017-11-10T15:52:31.924Z,11.37
2017-11-10T15:55:06.785Z,4.70
2017-11-10T15:57:41.600Z,2.90
2017-11-10T16:00:16.163Z,7.03
2017-11-10T16:02:51.280Z,3.00
2017-11-10T16:05:26.030Z,2.00
2017-11-10T16:08:00.745Z,2.20
2017-11-10T16:10:35.737Z,2.23
2017-11-10T16:13:10.548Z,1.20
2017-11-10T16:15:45.065Z,1.40
2017-11-10T16:18:19.273Z,1.80
2017-11-10T16:20:54.280Z,1.73
2017-11-10T16:23:29.095Z,1.63
2017-11-10T16:26:03.865Z,1.40
2017-11-10T16:28:38.616Z,1.77
2017-11-10T16:31:13.740Z,1.93
2017-11-10T16:33:48.368Z,1.70
2017-11-10T16:36:22.725Z,1.87
2017-11-10T16:38:58.038Z,1.50
2017-11-10T16:41:32.829Z,1.73
2017-11-10T16:44:07.511Z,2.10
2017-11-10T16:46:42.134Z,2.07
2017-11-10T16:49:16.913Z,2.07
2017-11-10T16:51:51.717Z,1.40
2017-11-10T16:54:26.421Z,3.00
2017-11-10T16:57:00.957Z,1.93
2017-11-10T16:59:36.508Z,2.07
2017-11-10T17:02:11.516Z,2.20
2017-11-10T17:04:46.186Z,1.33
2017-11-10T17:07:20.981Z,1.60
2017-11-10T17:09:56.547Z,0.87
2017-11-10T17:12:31.461Z,1.43
2017-11-10T17:15:06.273Z,1.40
2017-11-10T17:17:40.901Z,2.00
2017-11-10T17:20:15.658Z,2.40
2017-11-10T17:22:50.007Z,1.47
2017-11-10T17:25:24.895Z,1.40
2017-11-10T17:27:59.581Z,0.87
2017-11-10T17:30:34.025Z,1.37
2017-11-10T17:33:09.215Z,1.20
2017-11-10T17:35:43.654Z,0.80
2017-11-10T17:38:18.173Z,1.20
2017-11-10T17:40:53.377Z,2.00
2017-11-10T17:43:27.617Z,2.00
2017-11-10T17:46:02.962Z,2.67
2017-11-10T17:48:37.909Z,1.10
2017-11-10T17:51:12.172Z,2.77
2017-11-10T17:53:46.858Z,1.83
2017-11-10T17:56:21.606Z,1.70
2017-11-10T17:58:56.568Z,0.80
2017-11-10T18:01:31.485Z,1.23
2017-11-10T18:04:05.950Z,0.60
2017-11-10T18:06:41.057Z,1.77
2017-11-10T18:09:15.837Z,1.40
2017-11-10T18:11:50.470Z,2.60
2017-11-10T18:14:25.714Z,1.67
2017-11-10T18:17:00.672Z,1.40
2017-11-10T18:19:35.517Z,1.13
2017-11-10T18:22:10.007Z,1.00
2017-11-10T18:24:44.667Z,1.23
2017-11-10T18:27:19.691Z,1.50
2017-11-10T18:29:54.381Z,2.03
2017-11-10T18:32:29.018Z,3.67
2017-11-10T18:35:04.189Z,1.43
2017-11-10T18:37:39.784Z,1.30
2017-11-10T18:40:14.352Z,1.17
2017-11-10T18:42:49.208Z,1.47
2017-11-10T18:45:24.480Z,1.17
2017-11-10T18:47:59.113Z,1.33
2017-11-10T18:50:34.193Z,1.33
2017-11-10T18:53:08.969Z,1.30
2017-11-10T18:55:48.693Z,0.70
2017-11-10T18:58:23.377Z,0.90
2017-11-10T19:00:57.651Z,1.03
2017-11-10T19:03:32.755Z,1.57
2017-11-10T19:06:07.505Z,0.97
2017-11-10T19:08:42.243Z,1.90
2017-11-10T19:11:17.250Z,3.33
2017-11-10T19:13:52.025Z,2.00
2017-11-10T19:16:26.941Z,1.93
2017-11-10T19:19:01.850Z,1.67
2017-11-10T19:21:36.769Z,1.80
2017-11-10T19:24:11.617Z,1.00
2017-11-10T19:26:46.695Z,1.73
2017-11-10T19:29:21.460Z,1.80
2017-11-10T19:31:56.690Z,1.67
2017-11-10T19:34:31.675Z,1.40
2017-11-10T19:37:06.657Z,1.60
2017-11-10T19:39:41.461Z,1.57
2017-11-10T19:42:15.985Z,1.50
2017-11-10T19:44:50.881Z,1.63
2017-11-10T19:47:25.550Z,1.27
2017-11-10T19:50:00.316Z,1.13
2017-11-10T19:52:35.033Z,1.90
2017-11-10T19:55:10.129Z,1.50
2017-11-10T19:57:44.960Z,1.60
2017-11-10T20:00:19.662Z,1.37
2017-11-10T20:02:55.161Z,1.47
2017-11-10T20:05:29.778Z,0.60
2017-11-10T20:08:04.346Z,1.87
2017-11-10T20:10:39.258Z,1.20
2017-11-10T20:13:14.922Z,1.20
2017-11-10T20:15:49.954Z,1.40
2017-11-10T20:18:24.662Z,2.30
2017-11-10T20:20:59.492Z,1.60
2017-11-10T20:23:34.502Z,2.10
2017-11-10T20:26:09.989Z,1.70
2017-11-10T20:28:44.768Z,1.50
2017-11-10T20:31:19.597Z,1.77
2017-11-10T20:33:54.299Z,1.77
2017-11-10T20:36:29.377Z,2.37
2017-11-10T20:39:03.502Z,1.90
2017-11-10T20:41:38.217Z,2.73
2017-11-10T20:44:13.065Z,2.10
2017-11-10T20:46:48.142Z,2.80
2017-11-10T20:49:23.998Z,1.87
2017-11-10T20:51:58.697Z,1.77
2017-11-10T20:54:33.301Z,2.27
2017-11-10T20:57:08.177Z,2.77
2017-11-10T20:59:42.546Z,1.70
2017-11-10T21:02:17.381Z,1.63
2017-11-10T21:04:52.266Z,3.00
2017-11-10T21:07:27.061Z,1.90
2017-11-10T21:10:01.904Z,2.30
2017-11-10T21:12:36.569Z,2.70
2017-11-10T21:15:12.124Z,3.77
2017-11-10T21:17:46.671Z,2.37
2017-11-10T21:20:21.295Z,2.23
2017-11-10T21:22:56.065Z,2.33
2017-11-10T21:25:30.704Z,3.07
2017-11-10T21:28:05.508Z,1.37
2017-11-10T21:30:40.375Z,1.43
2017-11-10T21:33:15.051Z,0.87
2017-11-10T21:35:50.105Z,1.50
2017-11-10T21:38:25.103Z,1.80
2017-11-10T21:41:00.011Z,2.03
2017-11-10T21:43:34.898Z,1.13
2017-11-10T21:46:09.899Z,1.73
2017-11-10T21:48:44.742Z,1.83
2017-11-10T21:51:20.633Z,2.27
2017-11-10T21:53:55.445Z,3.40
2017-11-10T21:56:29.836Z,3.07
2017-11-10T21:59:04.728Z,2.50
2017-11-10T22:01:39.738Z,3.33
2017-11-10T22:04:14.429Z,2.57
2017-11-10T22:06:49.212Z,3.47
2017-11-10T22:09:23.916Z,1.97
2017-11-10T22:11:58.704Z,3.00
2017-11-10T22:14:33.501Z,1.90
2017-11-10T22:17:08.501Z,1.70
2017-11-10T22:19:42.985Z,2.20
2017-11-10T22:22:18.038Z,1.50
2017-11-10T22:24:52.960Z,1.90
2017-11-10T22:27:27.675Z,2.40
2017-11-10T22:30:02.341Z,1.73
2017-11-10T22:32:37.349Z,1.60
2017-11-10T22:35:12.174Z,1.23
2017-11-10T22:37:46.780Z,1.60
2017-11-10T22:40:21.507Z,1.43
2017-11-10T22:42:57.361Z,1.93
2017-11-10T22:45:32.257Z,1.43
2017-11-10T22:48:07.022Z,1.80
2017-11-10T22:50:42.697Z,1.57
2017-11-10T22:53:17.550Z,1.40
2017-11-10T22:55:52.570Z,1.27
2017-11-10T22:58:27.530Z,1.20
2017-11-10T23:01:02.365Z,1.33
2017-11-10T23:03:37.367Z,1.80
2017-11-10T23:06:12.135Z,1.50
2017-11-10T23:08:47.994Z,1.10
2017-11-10T23:11:22.728Z,1.00
2017-11-10T23:13:57.529Z,1.23
2017-11-10T23:16:32.247Z,1.80
2017-11-10T23:19:07.181Z,1.10
2017-11-10T23:21:41.982Z,1.27
2017-11-10T23:24:17.674Z,1.83
2017-11-10T23:26:52.493Z,1.00
2017-11-10T23:29:27.169Z,1.23
2017-11-10T23:32:02.176Z,1.43
2017-11-10T23:34:36.978Z,1.70
2017-11-10T23:37:11.746Z,1.77
2017-11-10T23:39:46.448Z,1.40
2017-11-10T23:42:20.682Z,1.50
2017-11-10T23:44:55.893Z,1.50
2017-11-10T23:47:30.913Z,1.33
2017-11-10T23:50:04.998Z,1.63
2017-11-10T23:52:40.293Z,0.90
2017-11-10T23:55:15.078Z,1.20
2017-11-10T23:57:50.025Z,1.60
